Time;durP1;ratioP1;P1;durP2;ratioP2;P2;SDS_P1;SDS_P2;PMS_P1;PMS_P2;Temp;Humidity;BMP_temperature;BMP_pressure;BME280_temperature;BME280_humidity;BME280_pressure;Samples;Min_cycle;Max_cycle;Signal;HPM_P1;HPM_P2
2022/11/04 00:01:39;;;;;;;4.10;2.30;;;;;;;9.15;71.84;101621.06;5040203;28;20057;-76
2022/11/04 00:04:11;;;;;;;6.00;2.50;;;;;;;9.08;71.96;101633.59;5038633;28;20049;-78
2022/11/04 00:06:40;;;;;;;5.18;2.10;;;;;;;8.98;72.55;101632.25;5041188;28;20585;-77
2022/11/04 00:09:15;;;;;;;2.78;1.80;;;;;;;8.92;72.99;101621.63;5049201;28;20052;-77
2022/11/04 00:14:34;;;;;;;2.85;1.80;;;;;;;8.87;75.03;101628.25;5040466;28;20068;-75
2022/11/04 00:17:22;;;;;;;7.65;2.45;;;;;;;8.80;75.33;101624.47;5041574;28;20566;-75
2022/11/04 00:28:45;;;;;;;5.10;2.20;;;;;;;8.55;78.19;101600.00;5035070;28;20059;-76
2022/11/04 00:34:09;;;;;;;3.80;2.30;;;;;;;8.47;81.53;101596.13;5037047;28;20072;-78
2022/11/04 00:36:41;;;;;;;7.20;2.28;;;;;;;8.45;81.31;101607.19;5039708;28;20057;-78
2022/11/04 00:39:11;;;;;;;4.57;2.38;;;;;;;8.44;81.52;101600.25;5036230;28;20071;-75
2022/11/04 00:42:02;;;;;;;3.58;1.88;;;;;;;8.37;81.01;101591.28;5041329;28;20049;-77
2022/11/04 00:44:44;;;;;;;4.50;2.22;;;;;;;8.38;78.66;101591.38;5042848;28;20052;-79
2022/11/04 00:47:12;;;;;;;3.75;2.13;;;;;;;8.38;80.06;101586.22;5036715;28;20135;-78
2022/11/04 00:52:32;;;;;;;5.53;1.88;;;;;;;8.36;80.62;101567.19;5037423;28;20053;-77
2022/11/04 00:55:00;;;;;;;4.10;2.33;;;;;;;8.33;81.09;101572.19;5039589;28;20048;-74
2022/11/04 00:57:41;;;;;;;;;;;;;;;;;;;;;
2022/11/04 01:00:11;;;;;;;3.35;2.15;;;;;;;8.33;81.58;101577.34;5038727;28;20600;-75
2022/11/04 01:02:40;;;;;;;6.22;2.50;;;;;;;8.32;81.58;101574.69;5036886;28;20048;-77
2022/11/04 01:05:12;;;;;;;4.32;2.28;;;;;;;8.30;82.31;101569.44;5027528;28;20720;-78
2022/11/04 01:07:50;;;;;;;4.78;2.53;;;;;;;8.29;82.82;101556.47;5040584;28;20102;-77
2022/11/04 01:10:19;;;;;;;4.82;2.65;;;;;;;8.25;83.70;101558.03;5045970;28;20045;-78
2022/11/04 01:12:54;;;;;;;6.00;2.88;;;;;;;8.27;85.61;101550.34;5033171;28;20519;-76
2022/11/04 01:15:26;;;;;;;8.38;2.53;;;;;;;8.24;85.53;101543.34;5045947;28;20127;-77
2022/11/04 01:17:55;;;;;;;6.25;2.90;;;;;;;8.23;86.08;101540.72;5049051;28;20040;-77
2022/11/04 01:20:23;;;;;;;6.97;2.53;;;;;;;8.22;87.69;101542.38;5047786;28;20079;-78
2022/11/04 01:22:52;;;;;;;5.05;2.33;;;;;;;8.19;88.15;101537.94;5039975;28;20051;-76
2022/11/04 01:25:41;;;;;;;6.68;2.33;;;;;;;8.19;87.89;101539.66;5048116;28;20060;-76
2022/11/04 01:28:27;;;;;;;5.55;2.80;;;;;;;8.17;87.91;101544.72;5037022;28;20575;-79
2022/11/04 01:30:56;;;;;;;4.72;2.78;;;;;;;8.15;87.66;101546.34;5034922;28;20533;-77
2022/11/04 01:33:28;;;;;;;3.78;2.67;;;;;;;8.16;88.99;101553.28;5046093;28;20071;-77
2022/11/04 01:36:05;;;;;;;7.60;3.38;;;;;;;8.16;88.08;101550.69;5035034;28;20053;-78
2022/11/04 01:38:34;;;;;;;9.60;3.70;;;;;;;8.16;87.97;101550.69;5043124;28;20103;-76
2022/11/04 01:41:03;;;;;;;10.57;4.15;;;;;;;8.16;87.83;101548.13;5044503;28;20401;-78
2022/11/04 01:43:55;;;;;;;6.55;4.40;;;;;;;8.16;88.74;101552.38;5051332;28;20059;-78
2022/11/04 01:46:41;;;;;;;7.95;4.60;;;;;;;8.16;88.39;101550.69;5038571;28;20510;-77
2022/11/04 01:49:31;;;;;;;6.95;4.25;;;;;;;8.16;87.74;101542.97;5040485;28;20071;-77
2022/11/04 01:52:11;;;;;;;7.70;5.18;;;;;;;8.17;87.25;101528.38;5035086;28;20553;-79
2022/11/04 01:54:45;;;;;;;10.20;5.00;;;;;;;8.16;87.78;101522.34;5037367;28;20078;-77
2022/11/04 01:57:37;;;;;;;8.43;4.88;;;;;;;8.15;87.19;101515.41;5030617;28;20085;-78
2022/11/04 02:00:20;;;;;;;6.17;3.67;;;;;;;8.12;85.74;101509.22;5045139;28;20057;-86
2022/11/04 02:02:57;;;;;;;7.53;3.78;;;;;;;8.10;85.23;101511.69;5040096;28;20052;-79
2022/11/04 02:05:26;;;;;;;7.45;3.97;;;;;;;8.11;83.89;101513.50;5037408;28;20047;-77
2022/11/04 02:07:59;;;;;;;4.88;3.05;;;;;;;8.10;83.83;101515.97;5042449;28;20052;-76
2022/11/04 02:10:30;;;;;;;5.85;3.38;;;;;;;8.13;83.35;101517.03;5039356;28;20128;-77
2022/11/04 02:13:01;;;;;;;5.80;3.40;;;;;;;8.16;83.69;101527.50;5041782;28;20059;-77
2022/11/04 02:15:43;;;;;;;5.07;2.92;;;;;;;8.14;82.86;101512.75;5043728;28;20041;-78
2022/11/04 02:18:41;;;;;;;9.52;4.13;;;;;;;8.15;81.02;101499.97;5027036;28;20088;-78
2022/11/04 02:21:50;;;;;;;9.52;3.75;;;;;;;8.19;81.52;101508.72;5046096;28;20048;-77
2022/11/04 02:24:46;;;;;;;15.60;4.07;;;;;;;8.21;80.77;101514.84;5039315;28;20049;-82
2022/11/04 02:27:36;;;;;;;6.97;3.90;;;;;;;8.19;80.41;101512.16;5040731;28;20392;-78
2022/11/04 02:30:12;;;;;;;15.52;5.00;;;;;;;8.19;81.32;101507.00;5040327;28;20053;-76
2022/11/04 02:32:52;;;;;;;6.53;3.47;;;;;;;8.22;81.00;101513.13;5041436;28;20080;-75
2022/11/04 02:35:27;;;;;;;9.13;3.83;;;;;;;8.25;81.15;101506.47;5038892;28;20071;-77
2022/11/04 02:38:06;;;;;;;5.60;3.00;;;;;;;8.24;81.29;101498.63;5044355;28;20044;-79
2022/11/04 02:40:41;;;;;;;6.00;2.65;;;;;;;8.22;80.89;101479.63;5037512;28;20488;-79
2022/11/04 02:43:19;;;;;;;4.75;3.28;;;;;;;8.21;80.46;101480.44;5043449;28;20055;-81
2022/11/04 02:45:53;;;;;;;5.95;2.63;;;;;;;8.21;81.10;101463.28;5043207;28;20483;-78
2022/11/04 02:48:29;;;;;;;4.57;3.05;;;;;;;8.24;80.44;101459.97;5047557;28;20119;-78
2022/11/04 02:51:05;;;;;;;4.80;2.63;;;;;;;8.22;81.08;101459.00;5040226;28;20047;-77
2022/11/04 02:53:41;;;;;;;4.10;2.67;;;;;;;8.25;80.64;101451.44;5040463;28;20483;-78
2022/11/04 02:56:13;;;;;;;4.18;2.33;;;;;;;8.28;81.72;101444.72;5046744;28;20057;-79
2022/11/04 02:58:53;;;;;;;3.40;1.80;;;;;;;8.26;80.50;101450.63;5040799;28;20049;-75
2022/11/04 03:01:26;;;;;;;4.10;2.75;;;;;;;8.27;81.37;101442.06;5041358;28;20050;-75
2022/11/04 03:04:02;;;;;;;6.07;2.90;;;;;;;8.31;80.73;101443.97;5040671;28;20045;-77
2022/11/04 03:06:33;;;;;;;5.85;2.78;;;;;;;8.31;81.09;101444.88;5043229;28;20526;-77
2022/11/04 03:09:03;;;;;;;4.70;2.78;;;;;;;8.34;80.37;101447.63;5043302;28;20084;-80
2022/11/04 03:11:32;;;;;;;6.35;2.90;;;;;;;8.35;79.98;101451.06;5046172;28;20051;-80
2022/11/04 03:14:05;;;;;;;3.97;2.83;;;;;;;8.35;80.78;101451.06;5043092;28;20056;-77
2022/11/04 03:16:39;;;;;;;7.38;2.85;;;;;;;8.35;81.00;101435.59;5040729;28;20140;-79
2022/11/04 03:19:13;;;;;;;3.42;2.05;;;;;;;8.36;80.81;101429.63;5039036;28;20049;-81
2022/11/04 03:21:46;;;;;;;4.15;2.72;;;;;;;8.37;80.69;101424.53;5036792;28;20114;-83
2022/11/04 03:24:15;;;;;;;5.22;2.70;;;;;;;8.37;81.57;101423.66;5035203;28;20041;-79
2022/11/04 03:26:53;;;;;;;4.95;2.78;;;;;;;8.38;81.56;101430.59;5051051;28;20052;-77
2022/11/04 03:29:31;;;;;;;5.82;2.70;;;;;;;8.37;81.61;101428.81;5040293;28;20071;-77
2022/11/04 03:32:13;;;;;;;4.45;2.90;;;;;;;8.39;81.61;101416.91;5046864;28;20094;-78
2022/11/04 03:34:46;;;;;;;5.18;2.45;;;;;;;8.38;82.46;101409.94;5045051;28;20052;-79
2022/11/04 03:37:18;;;;;;;7.20;3.10;;;;;;;8.38;82.46;101417.69;5043527;28;20518;-80
2022/11/04 03:39:49;;;;;;;7.25;2.92;;;;;;;8.41;82.67;101409.25;5034549;28;20052;-78
2022/11/04 03:42:22;;;;;;;5.80;3.08;;;;;;;8.34;82.56;101419.25;5046113;28;20037;-77
2022/11/04 03:44:52;;;;;;;5.35;2.90;;;;;;;8.35;82.77;101414.97;5032524;28;20053;-80
2022/11/04 03:47:24;;;;;;;5.78;2.53;;;;;;;8.40;83.19;101410.94;5044452;28;20048;-78
2022/11/04 03:50:00;;;;;;;3.63;2.45;;;;;;;8.44;83.00;101419.72;5041165;28;20111;-79
2022/11/04 03:52:31;;;;;;;4.80;2.50;;;;;;;8.37;81.81;101408.19;5043200;28;20045;-80
2022/11/04 03:55:01;;;;;;;5.78;2.55;;;;;;;8.39;82.81;101404.00;5046628;28;20047;-80
2022/11/04 03:57:41;;;;;;;5.88;2.33;;;;;;;8.38;81.15;101409.94;5035102;28;20038;-78
2022/11/04 04:00:13;;;;;;;3.90;2.58;;;;;;;8.39;82.27;101396.28;5045231;28;20041;-78
2022/11/04 04:03:00;;;;;;;;;;;;;;;8.42;81.96;101383.53;5039875;28;20098;-79
2022/11/04 04:05:31;;;;;;;4.15;2.30;;;;;;;8.45;82.32;101373.38;5038251;28;19921;-79
2022/11/04 04:08:13;;;;;;;5.47;2.40;;;;;;;8.43;81.76;101367.28;5036894;28;20051;-80
2022/11/04 04:10:56;;;;;;;2.10;1.50;;;;;;;8.47;81.91;101364.00;5037034;28;20053;-80
2022/11/04 04:13:36;;;;;;;2.20;1.42;;;;;;;8.42;81.30;101364.63;5037322;28;20064;-77
2022/11/04 04:16:09;;;;;;;2.72;1.50;;;;;;;8.37;81.64;101374.69;5038911;28;20712;-84
2022/11/04 04:18:44;;;;;;;2.70;1.52;;;;;;;8.39;80.98;101367.91;5043015;28;20052;-79
2022/11/04 04:21:18;;;;;;;3.30;1.65;;;;;;;8.42;80.35;101365.50;5037937;28;20045;-80
2022/11/04 04:29:33;;;;;;;2.80;1.42;;;;;;;8.45;80.59;101345.00;4999548;28;20052;-78
2022/11/04 04:32:04;;;;;;;4.18;1.30;;;;;;;8.44;79.37;101358.72;5031625;28;20045;-78
2022/11/04 04:34:35;;;;;;;3.35;1.90;;;;;;;8.45;80.64;101360.47;5042379;28;20051;-79
2022/11/04 04:37:10;;;;;;;3.35;1.33;;;;;;;8.47;80.46;101350.25;5038824;28;20053;-77
2022/11/04 04:45:23;;;;;;;2.47;1.48;;;;;;;8.52;80.49;101341.94;5037078;28;20052;-77
2022/11/04 04:47:53;;;;;;;5.80;1.88;;;;;;;8.50;80.69;101334.94;5036843;28;20655;-78
2022/11/04 04:50:31;;;;;;;3.85;2.22;;;;;;;8.51;80.61;101329.81;5040538;28;20064;-80
2022/11/04 04:53:02;;;;;;;3.92;2.08;;;;;;;8.55;80.10;101321.41;5040869;28;20060;-77
2022/11/04 04:55:31;;;;;;;6.20;2.00;;;;;;;8.53;80.67;101317.00;5045719;28;20069;-77
2022/11/04 04:58:00;;;;;;;4.68;1.90;;;;;;;8.57;81.41;101314.63;5043425;28;20087;-78
2022/11/04 05:00:30;;;;;;;3.13;2.00;;;;;;;8.56;81.25;101312.84;5043317;28;20480;-85
2022/11/04 05:02:58;;;;;;;3.42;1.50;;;;;;;8.56;80.63;101328.34;5046798;28;20057;-76
2022/11/04 05:05:29;;;;;;;3.20;2.00;;;;;;;8.58;81.62;101315.53;5046174;28;20292;-77
2022/11/04 05:08:05;;;;;;;6.32;2.05;;;;;;;8.64;81.07;101325.25;5040391;28;20649;-78
2022/11/04 05:10:33;;;;;;;3.60;2.10;;;;;;;8.63;80.40;101334.66;5045053;28;20056;-74
2022/11/04 05:15:52;;;;;;;3.72;1.85;;;;;;;8.68;82.56;101328.06;5038410;28;20056;-78
2022/11/04 05:18:21;;;;;;;4.00;2.50;;;;;;;8.65;80.42;101322.72;5040850;28;20521;-76
2022/11/04 05:20:51;;;;;;;5.05;2.17;;;;;;;8.63;81.79;101318.31;5044920;28;20045;-86
2022/11/04 05:23:26;;;;;;;5.03;2.60;;;;;;;8.63;81.24;101292.50;5042311;28;20072;-87
2022/11/04 05:25:54;;;;;;;5.35;2.80;;;;;;;8.66;82.57;101314.19;5049812;28;20487;-79
2022/11/04 05:28:24;;;;;;;8.13;2.90;;;;;;;8.58;84.33;101300.03;5040720;28;20052;-80
2022/11/04 05:30:54;;;;;;;5.57;2.90;;;;;;;8.55;86.09;101297.34;5042010;28;20045;-80
2022/11/04 05:33:25;;;;;;;6.55;3.40;;;;;;;8.52;85.37;101279.13;5038783;28;20107;-78
2022/11/04 05:36:10;;;;;;;6.80;3.40;;;;;;;8.47;86.41;101296.09;5041054;28;20080;-82
2022/11/04 05:38:41;;;;;;;8.93;4.03;;;;;;;8.48;86.72;101288.44;5039275;28;20040;-80
2022/11/04 05:41:24;;;;;;;7.45;3.88;;;;;;;8.48;86.21;101293.59;5039479;28;20079;-78
2022/11/04 05:43:56;;;;;;;5.80;3.10;;;;;;;8.49;86.89;101294.47;5047755;28;20218;-81
2022/11/04 05:46:24;;;;;;;5.65;3.60;;;;;;;8.48;85.38;101303.91;5046352;28;20064;-79
2022/11/04 05:48:53;;;;;;;5.25;3.47;;;;;;;8.48;85.86;101296.16;5047210;28;20075;-77
2022/11/04 05:51:25;;;;;;;6.00;3.55;;;;;;;8.49;86.07;101300.50;5046729;28;20067;-78
2022/11/04 05:53:54;;;;;;;8.70;3.85;;;;;;;8.51;85.87;101290.25;5038571;28;20554;-80
2022/11/04 05:56:28;;;;;;;5.75;3.63;;;;;;;8.50;84.74;101280.78;5046566;28;20051;-79
2022/11/04 05:58:57;;;;;;;7.53;4.03;;;;;;;8.44;85.14;101285.63;5046279;28;20995;-79
2022/11/04 06:01:30;;;;;;;5.50;3.63;;;;;;;8.44;86.12;101276.19;5041619;28;20056;-78
2022/11/04 06:03:59;;;;;;;4.53;2.80;;;;;;;8.38;84.26;101261.31;5041794;28;20037;-80
2022/11/04 06:06:35;;;;;;;7.97;3.40;;;;;;;8.40;85.46;101261.38;5041643;28;20041;-82
2022/11/04 06:09:05;;;;;;;8.20;3.47;;;;;;;8.42;85.86;101262.34;4992986;28;20045;-76
2022/11/04 06:11:37;;;;;;;6.72;4.35;;;;;;;8.39;86.21;101267.34;5042208;28;20045;-82
2022/11/04 06:14:11;;;;;;;9.00;4.30;;;;;;;8.38;87.49;101250.06;5044160;28;20049;-75
2022/11/04 06:16:39;;;;;;;7.68;3.72;;;;;;;8.34;88.08;101248.19;5044416;28;20056;-81
2022/11/04 06:19:08;;;;;;;8.80;3.85;;;;;;;8.33;89.34;101246.41;5046393;28;20068;-79
2022/11/04 06:21:38;;;;;;;6.70;3.78;;;;;;;8.32;90.10;101257.56;5048875;28;20980;-77
2022/11/04 06:24:11;;;;;;;5.43;3.60;;;;;;;8.28;91.20;101248.78;5045896;28;20063;-81
2022/11/04 06:26:39;;;;;;;6.75;3.78;;;;;;;8.26;91.02;101246.94;5047223;28;20120;-78
2022/11/04 06:29:08;;;;;;;8.95;3.25;;;;;;;8.24;92.17;101251.13;5028693;28;20041;-79
2022/11/04 06:31:37;;;;;;;5.85;3.15;;;;;;;8.21;92.13;101241.56;5040586;28;20076;-77
2022/11/04 06:34:05;;;;;;;5.75;3.72;;;;;;;8.10;93.81;101246.22;5041255;28;20414;-77
2022/11/04 06:36:35;;;;;;;7.32;3.75;;;;;;;8.10;94.87;101238.47;5040173;28;20049;-79
2022/11/04 06:39:05;;;;;;;5.90;3.75;;;;;;;8.05;97.03;101228.78;5048486;28;20044;-77
2022/11/04 06:41:34;;;;;;;4.90;3.10;;;;;;;8.03;97.47;101225.25;5049567;28;20041;-76
2022/11/04 06:44:03;;;;;;;5.07;3.22;;;;;;;7.98;97.35;101230.19;5042801;28;21009;-78
2022/11/04 06:46:35;;;;;;;8.73;3.20;;;;;;;8.00;98.78;101235.41;5039619;28;21008;-79
2022/11/04 06:49:04;;;;;;;5.60;3.63;;;;;;;8.00;98.34;101232.84;5046446;28;20109;-78
2022/11/04 06:51:33;;;;;;;4.68;2.83;;;;;;;7.98;98.77;101237.91;5041004;28;20056;-77
2022/11/04 06:54:02;;;;;;;5.63;3.58;;;;;;;8.00;98.78;101233.72;5040089;28;20211;-76
2022/11/04 06:56:33;;;;;;;6.40;3.20;;;;;;;8.02;99.85;101221.78;5039771;28;20053;-80
2022/11/04 06:59:01;;;;;;;5.38;2.85;;;;;;;8.01;98.54;101212.28;5042644;28;20128;-76
2022/11/04 07:01:33;;;;;;;6.35;3.28;;;;;;;8.02;98.53;101208.91;5038533;28;20049;-78
2022/11/04 07:04:04;;;;;;;3.15;2.50;;;;;;;8.02;99.08;101214.06;5038964;28;20045;-76
2022/11/04 07:06:32;;;;;;;4.40;2.90;;;;;;;8.03;99.85;101215.81;5037404;28;20065;-79
2022/11/04 07:09:04;;;;;;;3.65;2.28;;;;;;;8.00;99.70;101219.97;5043073;28;20500;-77
2022/11/04 07:11:35;;;;;;;4.72;2.55;;;;;;;8.00;100.00;101210.53;5038038;28;20041;-77
2022/11/04 07:14:03;;;;;;;3.88;2.17;;;;;;;8.02;100.00;101200.28;5038630;28;20045;-77
2022/11/04 07:16:32;;;;;;;6.85;1.77;;;;;;;8.03;99.68;101189.16;5035825;28;20399;-76
2022/11/04 07:19:01;;;;;;;3.13;1.98;;;;;;;8.02;100.00;101190.88;5042703;28;20068;-77
2022/11/04 07:21:29;;;;;;;3.63;1.77;;;;;;;8.03;99.76;101195.19;5043486;28;20422;-77
2022/11/04 07:23:58;;;;;;;2.08;1.55;;;;;;;7.97;100.00;101198.38;5036399;28;20053;-75
2022/11/04 07:26:27;;;;;;;3.42;1.70;;;;;;;7.99;100.00;101182.97;5039065;28;20487;-81
2022/11/04 07:28:59;;;;;;;4.90;2.20;;;;;;;8.01;100.00;101173.63;5038908;28;21265;-77
2022/11/04 07:31:32;;;;;;;5.00;2.08;;;;;;;8.04;100.00;101167.72;5037952;28;20102;-78
2022/11/04 07:34:01;;;;;;;3.25;1.90;;;;;;;8.00;100.00;101161.56;5039989;28;20095;-78
2022/11/04 07:36:31;;;;;;;8.35;2.75;;;;;;;7.93;100.00;101157.81;5040379;28;20614;-78
2022/11/04 07:38:59;;;;;;;4.25;2.60;;;;;;;7.89;100.00;101153.31;5048629;28;20128;-78
2022/11/04 07:41:28;;;;;;;7.95;3.42;;;;;;;7.88;100.00;101142.94;5044269;28;20492;-79
2022/11/04 07:43:59;;;;;;;4.68;2.92;;;;;;;7.89;100.00;101144.72;5036335;28;20057;-76
2022/11/04 07:46:28;;;;;;;5.25;2.88;;;;;;;7.83;100.00;101153.03;5040167;28;20806;-78
2022/11/04 07:48:59;;;;;;;5.05;3.15;;;;;;;7.71;100.00;101135.31;5038265;28;20052;-78
2022/11/04 07:51:31;;;;;;;5.70;3.10;;;;;;;7.71;100.00;101135.31;5041396;28;20049;-79
2022/11/04 07:53:59;;;;;;;5.53;2.88;;;;;;;7.72;100.00;101149.09;5042236;28;20180;-78
2022/11/04 07:56:28;;;;;;;4.63;2.95;;;;;;;7.76;100.00;101159.63;5038481;28;20059;-80
2022/11/04 07:58:59;;;;;;;4.20;2.60;;;;;;;7.76;100.00;101164.75;5042523;28;20112;-77
2022/11/04 08:01:27;;;;;;;3.72;2.55;;;;;;;7.80;100.00;101149.44;5043493;28;20055;-77
2022/11/04 08:04:06;;;;;;;6.70;3.35;;;;;;;7.84;100.00;101151.34;5044026;28;20043;-78
2022/11/04 08:06:34;;;;;;;4.03;2.55;;;;;;;7.84;100.00;101152.22;5038097;28;20077;-80
2022/11/04 08:09:03;;;;;;;4.95;3.03;;;;;;;7.88;100.00;101158.41;5037227;28;20041;-78
2022/11/04 08:11:37;;;;;;;5.57;2.83;;;;;;;7.92;100.00;101165.47;5040557;28;20059;-79
2022/11/04 08:14:07;;;;;;;4.88;2.55;;;;;;;7.93;100.00;101172.41;5033899;28;20160;-81
2022/11/04 08:16:36;;;;;;;8.50;2.90;;;;;;;7.89;100.00;101150.75;5043036;28;20045;-79
2022/11/04 08:19:04;;;;;;;9.73;3.55;;;;;;;7.97;100.00;101149.41;5039337;28;20072;-78
2022/11/04 08:21:40;;;;;;;5.70;2.60;;;;;;;8.00;100.00;101137.50;5043243;28;20045;-79
2022/11/04 08:24:09;;;;;;;4.97;2.53;;;;;;;8.00;100.00;101138.38;5042052;28;20164;-79
2022/11/04 08:26:38;;;;;;;4.70;3.15;;;;;;;8.03;100.00;101150.50;5036266;28;20040;-78
2022/11/04 08:29:10;;;;;;;4.57;2.60;;;;;;;8.03;100.00;101133.34;5049011;28;20049;-77
2022/11/04 08:31:39;;;;;;;3.00;2.17;;;;;;;8.05;100.00;101117.97;5049040;28;20052;-77
2022/11/04 08:34:07;;;;;;;5.97;2.75;;;;;;;8.08;100.00;101112.94;5035960;28;20057;-77
2022/11/04 08:36:40;;;;;;;6.28;2.58;;;;;;;8.09;100.00;101113.03;5040867;28;20041;-79
2022/11/04 08:39:11;;;;;;;4.65;2.63;;;;;;;8.10;100.00;101114.75;5051620;28;20045;-78
2022/11/04 08:41:42;;;;;;;3.22;2.03;;;;;;;8.06;100.00;101112.84;5043190;28;20044;-80
2022/11/04 08:44:13;;;;;;;4.53;2.22;;;;;;;8.06;100.00;101118.00;5042575;28;20052;-79
2022/11/04 08:46:43;;;;;;;3.28;2.20;;;;;;;8.05;100.00;101116.25;5042836;28;20057;-78
2022/11/04 08:49:12;;;;;;;3.63;1.65;;;;;;;8.03;100.00;101129.91;5041083;28;20247;-77
2022/11/04 08:51:43;;;;;;;5.90;2.72;;;;;;;8.02;100.00;101118.72;5046409;28;20132;-79
2022/11/04 08:54:12;;;;;;;3.00;1.85;;;;;;;7.97;100.00;101115.00;5045242;28;20045;-79
2022/11/04 08:56:41;;;;;;;3.60;1.98;;;;;;;8.02;100.00;101118.72;5037016;28;20071;-79
2022/11/04 08:59:12;;;;;;;4.63;1.92;;;;;;;8.02;100.00;101105.81;5042407;28;20511;-82
2022/11/04 09:01:40;;;;;;;2.88;1.88;;;;;;;8.00;100.00;101117.75;5045101;28;20045;-79
2022/11/04 09:04:11;;;;;;;3.13;2.00;;;;;;;7.99;100.00;101097.94;5042727;28;20049;-78
2022/11/04 09:06:45;;;;;;;3.17;2.47;;;;;;;8.04;100.00;101099.03;5045902;28;20053;-77
2022/11/04 09:09:16;;;;;;;4.38;2.13;;;;;;;8.01;100.00;101091.16;5044152;28;20102;-79
2022/11/04 09:11:46;;;;;;;5.25;2.17;;;;;;;8.02;100.00;101092.94;5042669;28;20045;-77
2022/11/04 09:14:18;;;;;;;3.17;1.75;;;;;;;7.98;100.00;101103.91;5041712;28;20041;-79
2022/11/04 09:16:46;;;;;;;4.65;2.15;;;;;;;8.01;100.00;101093.72;5043225;28;20708;-76
2022/11/04 09:19:15;;;;;;;3.25;1.58;;;;;;;7.96;100.00;101090.94;5042005;28;20045;-77
2022/11/04 09:21:51;;;;;;;4.30;2.30;;;;;;;8.00;100.00;101091.09;5048527;28;20055;-76
2022/11/04 09:24:19;;;;;;;5.43;1.77;;;;;;;8.00;100.00;101076.53;5046807;28;20048;-79
2022/11/04 09:26:48;;;;;;;4.60;2.28;;;;;;;8.02;100.00;101074.91;5050657;28;20572;-78
2022/11/04 09:29:18;;;;;;;7.22;2.03;;;;;;;8.02;100.00;101063.69;5045298;28;20160;-76
2022/11/04 09:31:48;;;;;;;4.05;1.80;;;;;;;8.00;100.00;101070.50;5046285;28;20052;-78
2022/11/04 09:34:20;;;;;;;2.47;1.58;;;;;;;8.01;100.00;101078.28;5043154;28;20049;-75
2022/11/04 09:36:49;;;;;;;1.95;1.25;;;;;;;8.03;100.00;101080.94;5046213;28;20126;-77
2022/11/04 09:39:18;;;;;;;2.05;1.48;;;;;;;8.06;100.00;101086.22;5050001;28;20064;-80
2022/11/04 09:42:10;;;;;;;2.70;1.55;;;;;;;8.06;100.00;101081.06;5046761;28;20053;-75
2022/11/04 09:44:50;;;;;;;2.53;1.57;;;;;;;8.07;100.00;101067.38;5039999;28;20042;-76
2022/11/04 09:47:21;;;;;;;3.90;1.55;;;;;;;8.08;100.00;101075.16;5042525;28;20297;-78
2022/11/04 09:49:54;;;;;;;4.63;2.20;;;;;;;8.07;100.00;101064.78;5041965;28;20139;-75
2022/11/04 09:52:26;;;;;;;4.35;2.03;;;;;;;8.09;100.00;101056.31;5043438;28;20056;-75
2022/11/04 09:54:59;;;;;;;4.18;1.58;;;;;;;8.07;100.00;101063.09;5042568;28;20060;-80
2022/11/04 09:57:28;;;;;;;2.53;1.65;;;;;;;8.08;100.00;101059.69;5040408;28;20047;-73
2022/11/04 10:00:00;;;;;;;1.40;1.10;;;;;;;8.13;100.00;101058.22;5040410;28;20041;-76
2022/11/04 10:02:46;;;;;;;2.20;1.80;;;;;;;8.14;100.00;101052.25;5041794;28;20064;-76
2022/11/04 10:05:29;;;;;;;5.03;1.98;;;;;;;8.07;100.00;101042.47;5039180;28;20588;-75
2022/11/04 10:08:20;;;;;;;3.25;1.77;;;;;;;8.12;100.00;101035.81;5045562;28;20049;-75
2022/11/04 10:10:57;;;;;;;3.42;1.25;;;;;;;8.15;100.00;101035.97;5044384;28;20115;-75
2022/11/04 10:13:36;;;;;;;3.33;1.75;;;;;;;8.15;100.00;101024.75;5038199;28;20041;-75
2022/11/04 10:16:25;;;;;;;3.15;1.77;;;;;;;8.17;100.00;101023.13;5043738;28;20040;-75
2022/11/04 10:19:12;;;;;;;5.05;2.28;;;;;;;8.15;100.00;101017.94;5045624;28;20494;-76
2022/11/04 10:21:50;;;;;;;3.10;1.77;;;;;;;8.18;100.00;101010.31;5042317;28;20103;-77
2022/11/04 10:24:24;;;;;;;4.50;1.40;;;;;;;8.19;100.00;101024.97;5039547;28;20502;-76
2022/11/04 10:26:58;;;;;;;3.70;1.55;;;;;;;8.23;100.00;101022.53;5044247;28;20045;-75
2022/11/04 10:29:34;;;;;;;3.28;1.25;;;;;;;8.22;100.00;101026.78;5044524;28;20049;-76
2022/11/04 10:32:13;;;;;;;2.10;0.93;;;;;;;8.21;100.00;101006.13;5039041;28;20049;-76
2022/11/04 10:34:47;;;;;;;5.10;1.35;;;;;;;8.21;100.00;100993.22;5044082;28;20044;-76
2022/11/04 10:37:16;;;;;;;1.30;1.00;;;;;;;8.19;100.00;100990.56;5035713;28;20056;-76
2022/11/04 10:39:46;;;;;;;2.33;1.40;;;;;;;8.23;100.00;100965.81;5042101;28;20052;-76
2022/11/04 10:42:20;;;;;;;4.00;1.63;;;;;;;8.23;100.00;100971.84;5044738;28;20380;-76
2022/11/04 10:44:52;;;;;;;3.58;1.15;;;;;;;8.23;100.00;100968.41;5043270;28;20060;-77
2022/11/04 10:47:41;;;;;;;1.55;1.13;;;;;;;8.27;100.00;100962.53;5038341;28;20049;-76
2022/11/04 10:50:29;;;;;;;1.55;1.00;;;;;;;8.29;100.00;100958.31;5041058;28;20060;-75
2022/11/04 10:53:10;;;;;;;2.58;1.38;;;;;;;8.31;100.00;100969.59;5041295;28;20584;-77
2022/11/04 10:55:45;;;;;;;1.92;1.15;;;;;;;8.36;100.00;100970.66;5047559;28;20051;-77
2022/11/04 10:58:20;;;;;;;1.67;1.20;;;;;;;8.37;100.00;100954.38;5037290;28;20073;-76
2022/11/04 11:00:50;;;;;;;2.00;1.15;;;;;;;8.40;100.00;100985.47;5042885;28;20037;-78
2022/11/04 11:03:34;;;;;;;2.05;1.20;;;;;;;8.43;100.00;100980.47;5045688;28;20509;-75
2022/11/04 11:06:16;;;;;;;2.20;1.10;;;;;;;8.45;100.00;100986.53;5039892;28;20072;-77
2022/11/04 11:08:45;;;;;;;2.03;1.25;;;;;;;8.46;100.00;100975.44;5042949;28;20064;-76
2022/11/04 11:11:15;;;;;;;0.95;0.85;;;;;;;8.49;100.00;100974.66;5040110;28;20049;-76
2022/11/04 11:13:46;;;;;;;2.08;0.68;;;;;;;8.46;100.00;100980.59;5038510;28;20052;-78
2022/11/04 11:16:20;;;;;;;2.10;1.20;;;;;;;8.50;100.00;100958.41;5042643;28;20577;-76
2022/11/04 11:19:13;;;;;;;2.85;1.25;;;;;;;8.48;100.00;100978.94;5041470;28;20051;-77
2022/11/04 11:21:46;;;;;;;1.77;0.80;;;;;;;8.47;100.00;100966.84;5046892;28;20041;-80
2022/11/04 11:24:19;;;;;;;2.08;1.20;;;;;;;8.52;100.00;100964.47;5038357;28;20087;-75
2022/11/04 11:26:50;;;;;;;1.67;1.15;;;;;;;8.56;100.00;100956.91;5043778;28;20049;-76
2022/11/04 11:29:24;;;;;;;2.08;1.20;;;;;;;8.58;100.00;100959.56;5045795;28;20056;-77
2022/11/04 11:31:54;;;;;;;2.38;1.20;;;;;;;8.59;100.00;100969.97;5037243;28;20056;-77
2022/11/04 11:34:27;;;;;;;1.00;0.80;;;;;;;8.62;100.00;100960.59;5041364;28;20086;-75
2022/11/04 11:36:57;;;;;;;4.47;1.02;;;;;;;8.66;100.00;100958.19;5038428;28;20049;-76
2022/11/04 11:39:28;;;;;;;2.38;1.00;;;;;;;8.60;100.00;100943.34;5045011;28;20053;-78
2022/11/04 11:42:00;;;;;;;1.52;0.98;;;;;;;8.67;100.00;100943.59;5039181;28;20049;-74
2022/11/04 11:44:33;;;;;;;3.17;1.35;;;;;;;8.65;100.00;100924.59;5041784;28;20044;-76
2022/11/04 11:47:04;;;;;;;1.30;0.85;;;;;;;8.65;100.00;100924.59;5035317;28;20061;-76
2022/11/04 11:49:37;;;;;;;1.63;0.82;;;;;;;8.66;100.00;100919.50;5040217;28;20114;-75
2022/11/04 11:52:33;;;;;;;3.42;0.80;;;;;;;8.69;100.00;100909.28;5030031;28;20052;-77
2022/11/04 11:55:07;;;;;;;3.05;0.90;;;;;;;8.71;100.00;100919.69;5041606;28;20144;-76
2022/11/04 11:57:45;;;;;;;1.70;0.68;;;;;;;8.73;100.00;100915.47;5038402;28;20077;-76
2022/11/04 12:00:17;;;;;;;2.95;0.95;;;;;;;8.68;100.00;100924.69;5041835;28;20046;-76
2022/11/04 12:02:56;;;;;;;2.60;1.00;;;;;;;8.73;100.00;100920.63;5037114;28;20044;-75
2022/11/04 12:05:34;;;;;;;2.42;0.98;;;;;;;8.73;100.00;100918.06;5034234;28;20053;-75
2022/11/04 12:08:17;;;;;;;1.90;0.93;;;;;;;8.71;100.00;100912.81;5031704;28;20047;-76
2022/11/04 12:10:54;;;;;;;1.35;0.90;;;;;;;8.74;100.00;100899.16;5036264;28;20551;-75
2022/11/04 12:13:28;;;;;;;1.40;0.90;;;;;;;8.79;100.00;100897.63;5033127;28;20049;-75
2022/11/04 12:16:14;;;;;;;1.00;0.70;;;;;;;8.81;100.00;100896.00;5037277;28;20049;-77
2022/11/04 12:19:05;;;;;;;1.60;1.00;;;;;;;8.84;100.00;100901.25;5041257;28;20063;-74
2022/11/04 12:21:41;;;;;;;1.88;1.05;;;;;;;8.78;100.00;100913.94;5038037;28;20049;-75
2022/11/04 12:24:26;;;;;;;4.68;1.35;;;;;;;8.83;100.00;100922.75;5042290;28;20135;-75
2022/11/04 12:27:05;;;;;;;4.50;0.90;;;;;;;8.85;100.00;100907.31;5037072;28;20107;-74
2022/11/04 12:29:48;;;;;;;1.20;0.95;;;;;;;8.86;100.00;100907.38;5043024;28;20661;-76
2022/11/04 12:32:30;;;;;;;3.22;1.05;;;;;;;8.91;100.00;100889.47;5024692;28;20053;-75
2022/11/04 12:35:12;;;;;;;2.15;1.10;;;;;;;8.91;100.00;100867.16;5026414;28;20045;-74